sensor_id;sensor_type;location;lat;lon;timestamp;P1;durP1;ratioP1;P2;durP2;ratioP2
53833;SDS011;39735;51.432;5.482;2022-10-18T00:02:10;10.55;;;7.30;;
53833;SDS011;39735;51.432;5.482;2022-10-18T00:04:35;11.27;;;8.02;;
53833;SDS011;39735;51.432;5.482;2022-10-18T00:07:01;8.13;;;7.45;;
53833;SDS011;39735;51.432;5.482;2022-10-18T00:09:26;22.98;;;8.20;;
53833;SDS011;39735;51.432;5.482;2022-10-18T00:11:52;11.88;;;6.88;;
53833;SDS011;39735;51.432;5.482;2022-10-18T00:14:18;11.73;;;6.50;;
53833;SDS011;39735;51.432;5.482;2022-10-18T00:16:44;10.55;;;6.60;;
53833;SDS011;39735;51.432;5.482;2022-10-18T00:19:09;14.73;;;6.40;;
53833;SDS011;39735;51.432;5.482;2022-10-18T00:21:34;29.48;;;9.02;;
53833;SDS011;39735;51.432;5.482;2022-10-18T00:24:00;8.50;;;6.72;;
53833;SDS011;39735;51.432;5.482;2022-10-18T00:26:27;14.50;;;6.95;;
53833;SDS011;39735;51.432;5.482;2022-10-18T00:28:55;13.05;;;6.07;;
53833;SDS011;39735;51.432;5.482;2022-10-18T00:31:23;10.57;;;6.97;;
53833;SDS011;39735;51.432;5.482;2022-10-18T00:33:50;12.75;;;6.50;;
53833;SDS011;39735;51.432;5.482;2022-10-18T00:36:17;12.25;;;8.13;;
53833;SDS011;39735;51.432;5.482;2022-10-18T00:38:43;18.75;;;7.25;;
53833;SDS011;39735;51.432;5.482;2022-10-18T00:41:10;8.98;;;6.75;;
53833;SDS011;39735;51.432;5.482;2022-10-18T00:46:27;14.20;;;6.30;;
53833;SDS011;39735;51.432;5.482;2022-10-18T00:48:54;23.40;;;7.55;;
53833;SDS011;39735;51.432;5.482;2022-10-18T00:51:20;11.65;;;6.20;;
53833;SDS011;39735;51.432;5.482;2022-10-18T00:53:47;6.75;;;6.07;;
53833;SDS011;39735;51.432;5.482;2022-10-18T00:56:13;7.10;;;5.82;;
53833;SDS011;39735;51.432;5.482;2022-10-18T00:58:38;19.38;;;6.45;;
53833;SDS011;39735;51.432;5.482;2022-10-18T01:01:04;6.35;;;5.95;;
53833;SDS011;39735;51.432;5.482;2022-10-18T01:03:29;16.77;;;7.32;;
53833;SDS011;39735;51.432;5.482;2022-10-18T01:05:55;11.32;;;7.55;;
53833;SDS011;39735;51.432;5.482;2022-10-18T01:16:31;7.22;;;6.53;;
53833;SDS011;39735;51.432;5.482;2022-10-18T01:18:59;20.67;;;8.38;;
53833;SDS011;39735;51.432;5.482;2022-10-18T01:21:45;25.20;;;6.82;;
53833;SDS011;39735;51.432;5.482;2022-10-18T01:24:24;8.95;;;7.22;;
53833;SDS011;39735;51.432;5.482;2022-10-18T01:27:10;13.77;;;6.68;;
53833;SDS011;39735;51.432;5.482;2022-10-18T01:30:06;14.52;;;7.80;;
53833;SDS011;39735;51.432;5.482;2022-10-18T01:33:20;17.60;;;7.75;;
53833;SDS011;39735;51.432;5.482;2022-10-18T01:35:55;14.82;;;7.20;;
53833;SDS011;39735;51.432;5.482;2022-10-18T01:38:41;17.50;;;8.13;;
53833;SDS011;39735;51.432;5.482;2022-10-18T01:41:07;33.85;;;8.25;;
53833;SDS011;39735;51.432;5.482;2022-10-18T01:43:34;10.55;;;6.50;;
53833;SDS011;39735;51.432;5.482;2022-10-18T01:46:01;7.40;;;6.70;;
53833;SDS011;39735;51.432;5.482;2022-10-18T01:48:28;14.65;;;7.50;;
53833;SDS011;39735;51.432;5.482;2022-10-18T01:50:54;21.25;;;6.88;;
53833;SDS011;39735;51.432;5.482;2022-10-18T01:53:27;13.95;;;7.18;;
53833;SDS011;39735;51.432;5.482;2022-10-18T01:58:41;16.40;;;5.80;;
53833;SDS011;39735;51.432;5.482;2022-10-18T02:01:44;9.07;;;7.00;;
53833;SDS011;39735;51.432;5.482;2022-10-18T02:04:39;23.23;;;8.20;;
53833;SDS011;39735;51.432;5.482;2022-10-18T02:07:22;12.32;;;7.55;;
53833;SDS011;39735;51.432;5.482;2022-10-18T02:10:02;7.38;;;6.75;;
53833;SDS011;39735;51.432;5.482;2022-10-18T02:12:36;11.30;;;6.13;;
53833;SDS011;39735;51.432;5.482;2022-10-18T02:15:05;8.45;;;5.88;;
53833;SDS011;39735;51.432;5.482;2022-10-18T02:17:32;13.90;;;7.15;;
53833;SDS011;39735;51.432;5.482;2022-10-18T02:19:57;11.32;;;6.72;;
53833;SDS011;39735;51.432;5.482;2022-10-18T02:22:25;8.95;;;8.02;;
53833;SDS011;39735;51.432;5.482;2022-10-18T02:24:54;7.63;;;6.93;;
53833;SDS011;39735;51.432;5.482;2022-10-18T02:27:20;25.17;;;8.82;;
53833;SDS011;39735;51.432;5.482;2022-10-18T02:29:46;16.15;;;8.13;;
53833;SDS011;39735;51.432;5.482;2022-10-18T02:32:30;13.57;;;7.82;;
53833;SDS011;39735;51.432;5.482;2022-10-18T02:35:04;8.05;;;7.22;;
53833;SDS011;39735;51.432;5.482;2022-10-18T02:37:35;19.17;;;7.63;;
53833;SDS011;39735;51.432;5.482;2022-10-18T02:40:02;13.23;;;6.90;;
53833;SDS011;39735;51.432;5.482;2022-10-18T02:42:49;16.67;;;6.93;;
53833;SDS011;39735;51.432;5.482;2022-10-18T02:45:18;8.27;;;7.40;;
53833;SDS011;39735;51.432;5.482;2022-10-18T02:47:44;12.95;;;8.35;;
53833;SDS011;39735;51.432;5.482;2022-10-18T02:50:09;16.48;;;8.45;;
53833;SDS011;39735;51.432;5.482;2022-10-18T02:52:35;17.92;;;7.68;;
53833;SDS011;39735;51.432;5.482;2022-10-18T02:55:01;13.27;;;10.95;;
53833;SDS011;39735;51.432;5.482;2022-10-18T02:57:26;9.70;;;7.38;;
53833;SDS011;39735;51.432;5.482;2022-10-18T02:59:52;21.17;;;8.38;;
53833;SDS011;39735;51.432;5.482;2022-10-18T03:02:17;9.20;;;8.27;;
53833;SDS011;39735;51.432;5.482;2022-10-18T03:04:42;8.85;;;8.07;;
53833;SDS011;39735;51.432;5.482;2022-10-18T03:07:08;14.55;;;8.93;;
53833;SDS011;39735;51.432;5.482;2022-10-18T03:09:33;9.55;;;7.68;;
53833;SDS011;39735;51.432;5.482;2022-10-18T03:11:59;17.75;;;8.95;;
53833;SDS011;39735;51.432;5.482;2022-10-18T03:14:24;16.20;;;8.60;;
53833;SDS011;39735;51.432;5.482;2022-10-18T03:16:50;13.02;;;9.52;;
53833;SDS011;39735;51.432;5.482;2022-10-18T03:19:15;9.07;;;8.15;;
53833;SDS011;39735;51.432;5.482;2022-10-18T03:21:40;13.93;;;9.02;;
53833;SDS011;39735;51.432;5.482;2022-10-18T03:24:06;21.80;;;10.57;;
53833;SDS011;39735;51.432;5.482;2022-10-18T03:26:31;18.05;;;9.10;;
53833;SDS011;39735;51.432;5.482;2022-10-18T03:28:57;17.95;;;11.23;;
53833;SDS011;39735;51.432;5.482;2022-10-18T03:31:22;23.27;;;11.45;;
53833;SDS011;39735;51.432;5.482;2022-10-18T03:33:47;25.98;;;13.02;;
53833;SDS011;39735;51.432;5.482;2022-10-18T03:36:13;15.35;;;11.18;;
53833;SDS011;39735;51.432;5.482;2022-10-18T03:38:38;17.10;;;13.13;;
53833;SDS011;39735;51.432;5.482;2022-10-18T03:41:04;17.48;;;11.95;;
53833;SDS011;39735;51.432;5.482;2022-10-18T03:43:30;19.08;;;13.93;;
53833;SDS011;39735;51.432;5.482;2022-10-18T03:45:55;30.08;;;16.40;;
53833;SDS011;39735;51.432;5.482;2022-10-18T03:48:20;42.13;;;14.82;;
53833;SDS011;39735;51.432;5.482;2022-10-18T03:50:46;27.35;;;17.35;;
53833;SDS011;39735;51.432;5.482;2022-10-18T03:53:11;30.80;;;16.17;;
53833;SDS011;39735;51.432;5.482;2022-10-18T03:55:37;32.72;;;17.05;;
53833;SDS011;39735;51.432;5.482;2022-10-18T03:58:02;24.60;;;16.95;;
53833;SDS011;39735;51.432;5.482;2022-10-18T04:00:28;42.95;;;17.63;;
53833;SDS011;39735;51.432;5.482;2022-10-18T04:02:53;48.85;;;22.52;;
53833;SDS011;39735;51.432;5.482;2022-10-18T04:05:19;25.30;;;16.58;;
53833;SDS011;39735;51.432;5.482;2022-10-18T04:07:44;28.90;;;19.20;;
53833;SDS011;39735;51.432;5.482;2022-10-18T04:10:10;36.30;;;18.40;;
53833;SDS011;39735;51.432;5.482;2022-10-18T04:12:35;26.63;;;17.48;;
53833;SDS011;39735;51.432;5.482;2022-10-18T04:15:01;23.42;;;18.23;;
53833;SDS011;39735;51.432;5.482;2022-10-18T04:17:26;45.90;;;19.42;;
53833;SDS011;39735;51.432;5.482;2022-10-18T04:19:52;25.50;;;17.42;;
53833;SDS011;39735;51.432;5.482;2022-10-18T04:22:17;27.75;;;19.13;;
53833;SDS011;39735;51.432;5.482;2022-10-18T04:24:43;25.08;;;15.90;;
53833;SDS011;39735;51.432;5.482;2022-10-18T04:27:08;31.63;;;15.50;;
53833;SDS011;39735;51.432;5.482;2022-10-18T04:29:33;21.52;;;17.52;;
53833;SDS011;39735;51.432;5.482;2022-10-18T04:31:59;22.30;;;16.10;;
53833;SDS011;39735;51.432;5.482;2022-10-18T04:34:24;22.35;;;18.42;;
53833;SDS011;39735;51.432;5.482;2022-10-18T04:36:50;44.47;;;20.25;;
53833;SDS011;39735;51.432;5.482;2022-10-18T04:39:15;24.80;;;18.13;;
53833;SDS011;39735;51.432;5.482;2022-10-18T04:41:41;24.10;;;18.80;;
53833;SDS011;39735;51.432;5.482;2022-10-18T04:44:06;20.50;;;17.15;;
53833;SDS011;39735;51.432;5.482;2022-10-18T04:46:32;28.80;;;16.25;;
53833;SDS011;39735;51.432;5.482;2022-10-18T04:48:57;25.20;;;18.02;;
53833;SDS011;39735;51.432;5.482;2022-10-18T04:51:25;34.47;;;16.73;;
53833;SDS011;39735;51.432;5.482;2022-10-18T04:53:50;17.70;;;15.60;;
53833;SDS011;39735;51.432;5.482;2022-10-18T04:56:16;21.40;;;15.45;;
53833;SDS011;39735;51.432;5.482;2022-10-18T04:58:41;18.38;;;14.98;;
53833;SDS011;39735;51.432;5.482;2022-10-18T05:01:07;19.67;;;15.65;;
53833;SDS011;39735;51.432;5.482;2022-10-18T05:03:32;16.45;;;14.23;;
53833;SDS011;39735;51.432;5.482;2022-10-18T05:05:58;25.77;;;17.23;;
53833;SDS011;39735;51.432;5.482;2022-10-18T05:08:23;27.63;;;15.00;;
53833;SDS011;39735;51.432;5.482;2022-10-18T05:10:49;19.17;;;14.73;;
53833;SDS011;39735;51.432;5.482;2022-10-18T05:13:15;22.38;;;15.57;;
53833;SDS011;39735;51.432;5.482;2022-10-18T05:15:40;31.92;;;15.18;;
53833;SDS011;39735;51.432;5.482;2022-10-18T05:18:06;16.65;;;14.85;;
53833;SDS011;39735;51.432;5.482;2022-10-18T05:20:31;24.13;;;15.57;;
53833;SDS011;39735;51.432;5.482;2022-10-18T05:22:57;28.42;;;17.17;;
53833;SDS011;39735;51.432;5.482;2022-10-18T05:25:23;18.10;;;15.60;;
53833;SDS011;39735;51.432;5.482;2022-10-18T05:27:48;29.92;;;17.98;;
53833;SDS011;39735;51.432;5.482;2022-10-18T05:30:14;40.83;;;18.80;;
53833;SDS011;39735;51.432;5.482;2022-10-18T05:32:39;21.48;;;16.48;;
53833;SDS011;39735;51.432;5.482;2022-10-18T05:35:05;26.55;;;16.50;;
53833;SDS011;39735;51.432;5.482;2022-10-18T05:37:31;20.23;;;17.00;;
53833;SDS011;39735;51.432;5.482;2022-10-18T05:39:56;25.23;;;18.02;;
53833;SDS011;39735;51.432;5.482;2022-10-18T05:42:22;37.97;;;18.23;;
53833;SDS011;39735;51.432;5.482;2022-10-18T05:44:47;34.08;;;18.80;;
53833;SDS011;39735;51.432;5.482;2022-10-18T05:47:12;39.55;;;20.70;;
53833;SDS011;39735;51.432;5.482;2022-10-18T05:49:38;25.55;;;21.10;;
53833;SDS011;39735;51.432;5.482;2022-10-18T05:52:03;23.27;;;19.35;;
53833;SDS011;39735;51.432;5.482;2022-10-18T05:54:29;25.85;;;21.70;;
53833;SDS011;39735;51.432;5.482;2022-10-18T05:56:54;54.78;;;21.75;;
53833;SDS011;39735;51.432;5.482;2022-10-18T05:59:20;35.42;;;25.35;;
53833;SDS011;39735;51.432;5.482;2022-10-18T06:01:45;27.92;;;22.45;;
53833;SDS011;39735;51.432;5.482;2022-10-18T06:04:10;31.23;;;21.73;;
53833;SDS011;39735;51.432;5.482;2022-10-18T06:06:36;29.23;;;22.02;;
53833;SDS011;39735;51.432;5.482;2022-10-18T06:09:02;27.42;;;20.23;;
53833;SDS011;39735;51.432;5.482;2022-10-18T06:11:29;33.05;;;22.58;;
53833;SDS011;39735;51.432;5.482;2022-10-18T06:13:55;77.72;;;24.63;;
53833;SDS011;39735;51.432;5.482;2022-10-18T06:16:22;39.58;;;22.38;;
53833;SDS011;39735;51.432;5.482;2022-10-18T06:18:48;47.28;;;22.52;;
53833;SDS011;39735;51.432;5.482;2022-10-18T06:21:15;32.88;;;21.05;;
53833;SDS011;39735;51.432;5.482;2022-10-18T06:23:41;54.08;;;21.27;;
53833;SDS011;39735;51.432;5.482;2022-10-18T06:26:06;65.57;;;23.92;;
53833;SDS011;39735;51.432;5.482;2022-10-18T06:28:34;68.38;;;27.95;;
53833;SDS011;39735;51.432;5.482;2022-10-18T06:31:00;93.63;;;27.98;;
53833;SDS011;39735;51.432;5.482;2022-10-18T06:33:26;67.30;;;25.13;;
53833;SDS011;39735;51.432;5.482;2022-10-18T06:35:55;71.55;;;23.13;;
53833;SDS011;39735;51.432;5.482;2022-10-18T06:38:25;79.90;;;24.37;;
53833;SDS011;39735;51.432;5.482;2022-10-18T06:40:51;55.72;;;22.00;;
53833;SDS011;39735;51.432;5.482;2022-10-18T06:43:17;80.25;;;27.08;;
53833;SDS011;39735;51.432;5.482;2022-10-18T06:45:42;57.53;;;25.45;;
53833;SDS011;39735;51.432;5.482;2022-10-18T06:48:08;70.70;;;25.70;;
53833;SDS011;39735;51.432;5.482;2022-10-18T06:50:33;52.03;;;23.48;;
53833;SDS011;39735;51.432;5.482;2022-10-18T06:52:59;55.67;;;26.20;;
53833;SDS011;39735;51.432;5.482;2022-10-18T06:55:25;56.05;;;26.98;;
53833;SDS011;39735;51.432;5.482;2022-10-18T06:57:51;51.55;;;25.42;;
53833;SDS011;39735;51.432;5.482;2022-10-18T07:00:17;60.35;;;27.85;;
53833;SDS011;39735;51.432;5.482;2022-10-18T07:02:42;56.67;;;27.23;;
53833;SDS011;39735;51.432;5.482;2022-10-18T07:05:08;59.53;;;29.58;;
53833;SDS011;39735;51.432;5.482;2022-10-18T07:07:33;57.92;;;30.30;;
53833;SDS011;39735;51.432;5.482;2022-10-18T07:09:59;50.72;;;31.80;;
53833;SDS011;39735;51.432;5.482;2022-10-18T07:12:24;59.85;;;30.02;;
53833;SDS011;39735;51.432;5.482;2022-10-18T07:14:49;55.85;;;33.58;;
53833;SDS011;39735;51.432;5.482;2022-10-18T07:17:15;59.63;;;33.88;;
53833;SDS011;39735;51.432;5.482;2022-10-18T07:19:40;69.50;;;32.92;;
53833;SDS011;39735;51.432;5.482;2022-10-18T07:22:05;65.97;;;32.70;;
53833;SDS011;39735;51.432;5.482;2022-10-18T07:24:31;67.40;;;33.25;;
53833;SDS011;39735;51.432;5.482;2022-10-18T07:26:56;63.42;;;34.92;;
53833;SDS011;39735;51.432;5.482;2022-10-18T07:29:21;75.25;;;38.35;;
53833;SDS011;39735;51.432;5.482;2022-10-18T07:31:47;83.50;;;38.58;;
53833;SDS011;39735;51.432;5.482;2022-10-18T07:34:12;62.55;;;34.35;;
53833;SDS011;39735;51.432;5.482;2022-10-18T07:36:38;45.95;;;34.20;;
53833;SDS011;39735;51.432;5.482;2022-10-18T07:39:04;63.60;;;35.95;;
53833;SDS011;39735;51.432;5.482;2022-10-18T07:41:29;86.93;;;40.10;;
53833;SDS011;39735;51.432;5.482;2022-10-18T07:43:57;61.35;;;36.05;;
53833;SDS011;39735;51.432;5.482;2022-10-18T07:46:23;74.95;;;41.90;;
53833;SDS011;39735;51.432;5.482;2022-10-18T07:48:48;96.85;;;41.85;;
53833;SDS011;39735;51.432;5.482;2022-10-18T07:51:14;83.55;;;41.55;;
53833;SDS011;39735;51.432;5.482;2022-10-18T07:53:40;78.05;;;39.88;;
53833;SDS011;39735;51.432;5.482;2022-10-18T07:56:10;97.25;;;43.20;;
53833;SDS011;39735;51.432;5.482;2022-10-18T07:58:40;110.38;;;44.00;;
53833;SDS011;39735;51.432;5.482;2022-10-18T08:01:09;98.93;;;42.40;;
53833;SDS011;39735;51.432;5.482;2022-10-18T08:03:35;100.65;;;42.80;;
53833;SDS011;39735;51.432;5.482;2022-10-18T08:06:01;98.78;;;43.03;;
53833;SDS011;39735;51.432;5.482;2022-10-18T08:08:27;125.47;;;45.00;;
53833;SDS011;39735;51.432;5.482;2022-10-18T08:10:53;109.85;;;45.67;;
53833;SDS011;39735;51.432;5.482;2022-10-18T08:13:18;96.57;;;43.50;;
53833;SDS011;39735;51.432;5.482;2022-10-18T08:15:44;95.60;;;42.30;;
53833;SDS011;39735;51.432;5.482;2022-10-18T08:18:10;92.53;;;42.30;;
53833;SDS011;39735;51.432;5.482;2022-10-18T08:20:35;103.28;;;44.45;;
53833;SDS011;39735;51.432;5.482;2022-10-18T08:23:01;90.60;;;41.03;;
53833;SDS011;39735;51.432;5.482;2022-10-18T08:25:28;80.47;;;39.63;;
53833;SDS011;39735;51.432;5.482;2022-10-18T08:27:54;103.75;;;41.90;;
53833;SDS011;39735;51.432;5.482;2022-10-18T08:30:19;94.68;;;37.38;;
53833;SDS011;39735;51.432;5.482;2022-10-18T08:32:47;79.25;;;34.38;;
53833;SDS011;39735;51.432;5.482;2022-10-18T08:35:12;79.47;;;33.88;;
53833;SDS011;39735;51.432;5.482;2022-10-18T08:37:38;72.80;;;33.05;;
53833;SDS011;39735;51.432;5.482;2022-10-18T08:40:04;86.72;;;33.40;;
53833;SDS011;39735;51.432;5.482;2022-10-18T08:45:04;57.60;;;31.38;;
53833;SDS011;39735;51.432;5.482;2022-10-18T08:47:34;71.22;;;30.52;;
53833;SDS011;39735;51.432;5.482;2022-10-18T08:50:03;66.93;;;31.00;;
53833;SDS011;39735;51.432;5.482;2022-10-18T08:55:24;66.38;;;30.98;;
53833;SDS011;39735;51.432;5.482;2022-10-18T09:00:18;58.80;;;31.30;;
53833;SDS011;39735;51.432;5.482;2022-10-18T09:06:30;67.38;;;32.38;;
53833;SDS011;39735;51.432;5.482;2022-10-18T09:14:02;52.05;;;26.95;;
53833;SDS011;39735;51.432;5.482;2022-10-18T09:16:49;74.07;;;31.52;;
53833;SDS011;39735;51.432;5.482;2022-10-18T09:19:42;88.55;;;31.20;;
53833;SDS011;39735;51.432;5.482;2022-10-18T09:22:19;57.15;;;28.98;;
53833;SDS011;39735;51.432;5.482;2022-10-18T09:24:52;68.07;;;29.63;;
53833;SDS011;39735;51.432;5.482;2022-10-18T09:27:50;58.00;;;29.05;;
53833;SDS011;39735;51.432;5.482;2022-10-18T09:33:39;58.45;;;28.40;;
53833;SDS011;39735;51.432;5.482;2022-10-18T09:36:19;54.67;;;27.88;;
53833;SDS011;39735;51.432;5.482;2022-10-18T09:38:47;78.25;;;27.33;;
53833;SDS011;39735;51.432;5.482;2022-10-18T09:41:15;67.47;;;30.23;;
53833;SDS011;39735;51.432;5.482;2022-10-18T09:43:46;57.47;;;27.65;;
53833;SDS011;39735;51.432;5.482;2022-10-18T09:46:14;51.50;;;27.60;;
53833;SDS011;39735;51.432;5.482;2022-10-18T09:48:42;79.90;;;26.63;;
53833;SDS011;39735;51.432;5.482;2022-10-18T09:51:14;52.47;;;28.67;;
53833;SDS011;39735;51.432;5.482;2022-10-18T09:53:53;73.00;;;25.23;;
53833;SDS011;39735;51.432;5.482;2022-10-18T09:56:24;60.13;;;28.70;;
53833;SDS011;39735;51.432;5.482;2022-10-18T09:58:52;75.68;;;27.52;;
53833;SDS011;39735;51.432;5.482;2022-10-18T10:01:19;62.38;;;24.30;;
53833;SDS011;39735;51.432;5.482;2022-10-18T10:03:46;62.53;;;26.02;;
53833;SDS011;39735;51.432;5.482;2022-10-18T10:08:39;59.53;;;27.63;;
53833;SDS011;39735;51.432;5.482;2022-10-18T10:11:24;55.25;;;22.88;;
53833;SDS011;39735;51.432;5.482;2022-10-18T10:13:51;63.08;;;33.10;;
53833;SDS011;39735;51.432;5.482;2022-10-18T10:16:16;48.80;;;20.98;;
53833;SDS011;39735;51.432;5.482;2022-10-18T10:18:42;67.95;;;26.23;;
53833;SDS011;39735;51.432;5.482;2022-10-18T10:21:14;54.63;;;24.75;;
53833;SDS011;39735;51.432;5.482;2022-10-18T10:28:49;84.40;;;23.58;;
53833;SDS011;39735;51.432;5.482;2022-10-18T10:33:40;85.25;;;27.35;;
53833;SDS011;39735;51.432;5.482;2022-10-18T10:36:18;48.08;;;22.77;;
53833;SDS011;39735;51.432;5.482;2022-10-18T10:41:16;48.05;;;21.70;;
53833;SDS011;39735;51.432;5.482;2022-10-18T10:43:44;58.88;;;23.40;;
53833;SDS011;39735;51.432;5.482;2022-10-18T10:46:16;48.08;;;19.25;;
53833;SDS011;39735;51.432;5.482;2022-10-18T10:51:28;38.97;;;17.58;;
53833;SDS011;39735;51.432;5.482;2022-10-18T10:54:10;47.80;;;16.65;;
53833;SDS011;39735;51.432;5.482;2022-10-18T10:59:45;44.95;;;15.52;;
53833;SDS011;39735;51.432;5.482;2022-10-18T11:04:37;44.42;;;14.48;;
53833;SDS011;39735;51.432;5.482;2022-10-18T11:07:39;44.60;;;14.48;;
53833;SDS011;39735;51.432;5.482;2022-10-18T11:12:41;31.88;;;15.07;;
53833;SDS011;39735;51.432;5.482;2022-10-18T11:17:45;40.92;;;14.65;;
53833;SDS011;39735;51.432;5.482;2022-10-18T11:23:00;44.20;;;13.05;;
53833;SDS011;39735;51.432;5.482;2022-10-18T11:25:38;35.05;;;10.95;;
53833;SDS011;39735;51.432;5.482;2022-10-18T11:30:49;52.88;;;15.68;;
53833;SDS011;39735;51.432;5.482;2022-10-18T11:33:47;54.75;;;15.68;;
53833;SDS011;39735;51.432;5.482;2022-10-18T11:36:19;50.22;;;12.93;;
53833;SDS011;39735;51.432;5.482;2022-10-18T11:38:57;49.47;;;11.98;;
53833;SDS011;39735;51.432;5.482;2022-10-18T11:41:33;50.83;;;12.20;;
53833;SDS011;39735;51.432;5.482;2022-10-18T11:44:03;142.60;;;19.77;;
53833;SDS011;39735;51.432;5.482;2022-10-18T11:54:46;24.33;;;9.27;;
53833;SDS011;39735;51.432;5.482;2022-10-18T12:05:28;62.17;;;10.98;;
53833;SDS011;39735;51.432;5.482;2022-10-18T12:07:59;51.53;;;10.02;;
53833;SDS011;39735;51.432;5.482;2022-10-18T12:10:29;38.38;;;8.75;;
53833;SDS011;39735;51.432;5.482;2022-10-18T12:13:02;46.88;;;11.70;;
53833;SDS011;39735;51.432;5.482;2022-10-18T12:15:30;58.90;;;9.38;;
53833;SDS011;39735;51.432;5.482;2022-10-18T12:17:59;51.00;;;11.02;;
53833;SDS011;39735;51.432;5.482;2022-10-18T12:20:26;46.55;;;9.98;;
53833;SDS011;39735;51.432;5.482;2022-10-18T12:23:06;32.83;;;10.52;;
53833;SDS011;39735;51.432;5.482;2022-10-18T12:25:36;25.52;;;8.55;;
53833;SDS011;39735;51.432;5.482;2022-10-18T12:30:42;36.05;;;7.47;;
53833;SDS011;39735;51.432;5.482;2022-10-18T12:33:16;46.13;;;7.85;;
53833;SDS011;39735;51.432;5.482;2022-10-18T12:38:34;37.75;;;6.57;;
53833;SDS011;39735;51.432;5.482;2022-10-18T12:41:01;47.95;;;7.38;;
53833;SDS011;39735;51.432;5.482;2022-10-18T12:43:28;54.60;;;8.82;;
53833;SDS011;39735;51.432;5.482;2022-10-18T12:46:01;63.50;;;9.80;;
53833;SDS011;39735;51.432;5.482;2022-10-18T12:48:30;27.70;;;7.10;;
53833;SDS011;39735;51.432;5.482;2022-10-18T12:51:03;31.15;;;8.77;;
53833;SDS011;39735;51.432;5.482;2022-10-18T12:53:42;21.27;;;8.40;;
53833;SDS011;39735;51.432;5.482;2022-10-18T13:13:01;30.73;;;5.80;;
53833;SDS011;39735;51.432;5.482;2022-10-18T13:15:54;33.38;;;5.20;;
53833;SDS011;39735;51.432;5.482;2022-10-18T13:24:07;13.95;;;3.45;;
53833;SDS011;39735;51.432;5.482;2022-10-18T13:30:10;19.23;;;4.30;;
53833;SDS011;39735;51.432;5.482;2022-10-18T13:32:55;22.98;;;5.05;;
53833;SDS011;39735;51.432;5.482;2022-10-18T13:41:17;29.42;;;6.32;;
53833;SDS011;39735;51.432;5.482;2022-10-18T14:08:28;28.67;;;3.03;;
53833;SDS011;39735;51.432;5.482;2022-10-18T14:13:54;22.38;;;4.18;;
53833;SDS011;39735;51.432;5.482;2022-10-18T14:16:36;22.02;;;3.35;;
53833;SDS011;39735;51.432;5.482;2022-10-18T14:19:12;32.88;;;5.63;;
53833;SDS011;39735;51.432;5.482;2022-10-18T14:21:43;21.92;;;3.30;;
53833;SDS011;39735;51.432;5.482;2022-10-18T14:24:14;25.65;;;3.65;;
53833;SDS011;39735;51.432;5.482;2022-10-18T14:26:43;24.70;;;3.35;;
53833;SDS011;39735;51.432;5.482;2022-10-18T14:29:15;14.18;;;3.40;;
53833;SDS011;39735;51.432;5.482;2022-10-18T14:31:42;36.50;;;5.32;;
53833;SDS011;39735;51.432;5.482;2022-10-18T14:34:15;47.78;;;5.65;;
53833;SDS011;39735;51.432;5.482;2022-10-18T14:36:41;14.23;;;3.70;;
53833;SDS011;39735;51.432;5.482;2022-10-18T14:39:14;25.15;;;2.67;;
53833;SDS011;39735;51.432;5.482;2022-10-18T14:41:56;17.52;;;3.17;;
53833;SDS011;39735;51.432;5.482;2022-10-18T14:44:26;31.35;;;4.53;;
53833;SDS011;39735;51.432;5.482;2022-10-18T14:47:00;24.30;;;2.33;;
53833;SDS011;39735;51.432;5.482;2022-10-18T14:49:26;14.63;;;3.17;;
53833;SDS011;39735;51.432;5.482;2022-10-18T14:51:53;18.65;;;4.15;;
53833;SDS011;39735;51.432;5.482;2022-10-18T14:54:23;25.77;;;3.55;;
53833;SDS011;39735;51.432;5.482;2022-10-18T14:56:52;16.95;;;3.33;;
53833;SDS011;39735;51.432;5.482;2022-10-18T14:59:28;9.93;;;2.25;;
53833;SDS011;39735;51.432;5.482;2022-10-18T15:02:21;15.23;;;3.53;;
53833;SDS011;39735;51.432;5.482;2022-10-18T15:05:22;11.60;;;2.90;;
53833;SDS011;39735;51.432;5.482;2022-10-18T15:07:39;35.40;;;3.92;;
53833;SDS011;39735;51.432;5.482;2022-10-18T15:10:05;13.48;;;2.85;;
53833;SDS011;39735;51.432;5.482;2022-10-18T15:12:40;34.17;;;3.33;;
53833;SDS011;39735;51.432;5.482;2022-10-18T15:15:11;36.90;;;4.93;;
53833;SDS011;39735;51.432;5.482;2022-10-18T15:17:40;21.10;;;2.88;;
53833;SDS011;39735;51.432;5.482;2022-10-18T15:20:20;17.58;;;2.83;;
53833;SDS011;39735;51.432;5.482;2022-10-18T15:22:46;12.65;;;4.03;;
53833;SDS011;39735;51.432;5.482;2022-10-18T15:25:13;21.08;;;4.60;;
53833;SDS011;39735;51.432;5.482;2022-10-18T15:27:44;8.35;;;2.95;;
53833;SDS011;39735;51.432;5.482;2022-10-18T15:30:22;21.48;;;5.07;;
53833;SDS011;39735;51.432;5.482;2022-10-18T15:33:02;20.48;;;4.15;;
53833;SDS011;39735;51.432;5.482;2022-10-18T15:37:58;28.50;;;3.78;;
53833;SDS011;39735;51.432;5.482;2022-10-18T15:40:31;17.40;;;3.08;;
53833;SDS011;39735;51.432;5.482;2022-10-18T15:42:59;15.45;;;2.83;;
53833;SDS011;39735;51.432;5.482;2022-10-18T15:45:31;10.13;;;2.50;;
53833;SDS011;39735;51.432;5.482;2022-10-18T15:48:13;19.88;;;4.18;;
53833;SDS011;39735;51.432;5.482;2022-10-18T15:50:41;49.20;;;6.15;;
53833;SDS011;39735;51.432;5.482;2022-10-18T15:55:50;20.35;;;3.42;;
53833;SDS011;39735;51.432;5.482;2022-10-18T15:58:18;23.85;;;4.10;;
53833;SDS011;39735;51.432;5.482;2022-10-18T16:00:46;20.58;;;4.05;;
53833;SDS011;39735;51.432;5.482;2022-10-18T16:03:12;14.10;;;3.75;;
53833;SDS011;39735;51.432;5.482;2022-10-18T16:05:39;12.68;;;3.15;;
53833;SDS011;39735;51.432;5.482;2022-10-18T16:08:04;24.73;;;2.67;;
53833;SDS011;39735;51.432;5.482;2022-10-18T16:10:30;28.25;;;3.05;;
53833;SDS011;39735;51.432;5.482;2022-10-18T16:12:55;23.90;;;5.00;;
53833;SDS011;39735;51.432;5.482;2022-10-18T16:15:20;18.92;;;3.65;;
53833;SDS011;39735;51.432;5.482;2022-10-18T16:17:46;15.85;;;1.92;;
53833;SDS011;39735;51.432;5.482;2022-10-18T16:20:22;25.60;;;4.72;;
53833;SDS011;39735;51.432;5.482;2022-10-18T16:22:48;22.77;;;4.00;;
53833;SDS011;39735;51.432;5.482;2022-10-18T16:25:14;16.63;;;3.72;;
53833;SDS011;39735;51.432;5.482;2022-10-18T16:27:39;7.47;;;1.58;;
53833;SDS011;39735;51.432;5.482;2022-10-18T16:30:12;9.93;;;3.03;;
53833;SDS011;39735;51.432;5.482;2022-10-18T16:32:40;12.57;;;2.60;;
53833;SDS011;39735;51.432;5.482;2022-10-18T16:35:05;17.55;;;3.38;;
53833;SDS011;39735;51.432;5.482;2022-10-18T16:37:31;10.45;;;3.30;;
53833;SDS011;39735;51.432;5.482;2022-10-18T16:39:56;7.88;;;1.70;;
53833;SDS011;39735;51.432;5.482;2022-10-18T16:42:22;21.42;;;4.70;;
53833;SDS011;39735;51.432;5.482;2022-10-18T16:44:48;17.35;;;2.33;;
53833;SDS011;39735;51.432;5.482;2022-10-18T16:47:13;28.60;;;3.47;;
53833;SDS011;39735;51.432;5.482;2022-10-18T16:49:39;27.45;;;3.58;;
53833;SDS011;39735;51.432;5.482;2022-10-18T16:52:04;25.75;;;4.00;;
53833;SDS011;39735;51.432;5.482;2022-10-18T16:54:30;35.97;;;4.75;;
53833;SDS011;39735;51.432;5.482;2022-10-18T16:56:55;18.92;;;3.17;;
53833;SDS011;39735;51.432;5.482;2022-10-18T16:59:28;20.00;;;4.10;;
53833;SDS011;39735;51.432;5.482;2022-10-18T17:01:54;10.38;;;4.90;;
53833;SDS011;39735;51.432;5.482;2022-10-18T17:04:20;25.70;;;4.85;;
53833;SDS011;39735;51.432;5.482;2022-10-18T17:06:45;15.10;;;4.30;;
53833;SDS011;39735;51.432;5.482;2022-10-18T17:09:13;24.95;;;3.45;;
53833;SDS011;39735;51.432;5.482;2022-10-18T17:11:38;22.52;;;4.53;;